Terminal Aerodrome Forecast
Issued by NWS

Home | Current Version | Previous Version | Text Only | Print | Product List | Glossary On
Versions: 1 2 3 4 5 6 7 8 9 10 11 12 13 14 15 16 17 18 19 20 21 22 23 24 25 26 27 28 29 30
000
FTUS42 KTBW 301129
TAFLAL
TAF
KLAL 301129Z 3012/3112 VRB03KT P6SM FEW015 SCT250
     FM301500 24005KT P6SM SCT040 SCT200
     FM301700 29007KT P6SM VCTS SCT050CB SCT200
     FM310000 VRB04KT P6SM SCT180=

USA.gov is the U.S. government's official web portal to all federal, state and local government web resources and services.